Time;durP1;ratioP1;P1;durP2;ratioP2;P2;SDS_P1;SDS_P2;PMS_P1;PMS_P2;Temp;Humidity;BMP_temperature;BMP_pressure;BME280_temperature;BME280_humidity;BME280_pressure;Samples;Min_cycle;Max_cycle;Signal;HPM_P1;HPM_P2
2021/07/12 00:01:53;;;;;;;1.73;1.63;;;27.50;53.10;;;;;;5009265;28;20054;-63
2021/07/12 00:04:20;;;;;;;1.75;1.65;;;27.50;53.10;;;;;;5009533;28;20052;-63
2021/07/12 00:06:47;;;;;;;1.80;1.70;;;27.50;53.20;;;;;;5009561;28;20061;-63
2021/07/12 00:09:15;;;;;;;1.63;1.60;;;27.50;53.20;;;;;;5009289;28;20526;-63
2021/07/12 00:11:43;;;;;;;1.65;1.55;;;27.40;53.10;;;;;;5007908;28;20129;-63
2021/07/12 00:14:10;;;;;;;1.52;1.52;;;27.50;53.20;;;;;;5008689;28;20363;-63
2021/07/12 00:16:37;;;;;;;1.77;1.67;;;27.40;53.20;;;;;;5008788;28;20064;-63
2021/07/12 00:19:05;;;;;;;1.65;1.55;;;27.40;53.20;;;;;;5009234;28;20072;-63
2021/07/12 00:21:32;;;;;;;2.05;1.95;;;27.40;53.20;;;;;;5009002;28;20768;-63
2021/07/12 00:23:59;;;;;;;1.75;1.65;;;27.40;53.30;;;;;;5009531;28;20075;-63
2021/07/12 00:26:26;;;;;;;1.80;1.70;;;27.40;53.20;;;;;;5009043;28;20471;-63
2021/07/12 00:28:53;;;;;;;1.70;1.60;;;27.40;53.20;;;;;;5009502;28;20129;-63
2021/07/12 00:31:21;;;;;;;1.80;1.70;;;27.40;53.30;;;;;;5008692;28;20748;-63
2021/07/12 00:33:49;;;;;;;1.88;1.77;;;27.40;53.30;;;;;;5008886;28;20050;-63
2021/07/12 00:36:16;;;;;;;1.70;1.60;;;27.40;53.30;;;;;;5008549;28;20056;-63
2021/07/12 00:38:43;;;;;;;2.00;1.90;;;27.40;53.30;;;;;;5008453;28;20446;-64
2021/07/12 00:41:10;;;;;;;1.50;1.42;;;27.40;53.30;;;;;;5008730;28;20049;-63
2021/07/12 00:43:39;;;;;;;1.60;1.60;;;27.40;53.30;;;;;;5008867;28;20582;-63
2021/07/12 00:46:09;;;;;;;1.75;1.65;;;27.40;53.30;;;;;;5040193;28;20125;-63
2021/07/12 00:48:37;;;;;;;2.38;2.22;;;27.40;53.30;;;;;;5008955;28;20061;-63
2021/07/12 00:51:04;;;;;;;1.77;1.67;;;27.40;53.30;;;;;;5008467;28;20133;-62
2021/07/12 00:53:31;;;;;;;1.77;1.67;;;27.40;53.30;;;;;;5008161;28;20050;-63
2021/07/12 00:55:59;;;;;;;1.85;1.75;;;27.40;53.20;;;;;;5040024;28;20085;-63
2021/07/12 00:58:28;;;;;;;1.65;1.55;;;27.40;53.20;;;;;;5008521;28;20282;-63
2021/07/12 01:01:00;;;;;;;1.60;1.52;;;27.40;53.20;;;;;;5008506;28;20057;-63
2021/07/12 01:03:28;;;;;;;2.30;1.52;;;27.40;53.20;;;;;;5008283;28;20165;-63
2021/07/12 01:05:55;;;;;;;1.30;1.30;;;27.40;53.20;;;;;;5007140;28;20073;-63
2021/07/12 01:08:22;;;;;;;1.65;1.55;;;27.40;53.20;;;;;;5008087;28;20526;-63
2021/07/12 01:11:26;;;;;;;2.00;1.90;;;27.40;53.20;;;;;;5040035;28;20586;-63
2021/07/12 01:14:06;;;;;;;1.20;1.20;;;27.40;53.20;;;;;;5008008;28;20061;-63
2021/07/12 01:16:54;;;;;;;1.70;1.60;;;27.40;53.20;;;;;;5006990;28;20746;-63
2021/07/12 01:20:06;;;;;;;1.80;1.70;;;27.40;53.20;;;;;;5008067;28;20828;-62
2021/07/12 01:23:13;;;;;;;1.60;1.50;;;27.40;53.20;;;;;;5007080;28;20081;-63
2021/07/12 01:26:12;;;;;;;1.90;1.80;;;27.40;53.20;;;;;;5007231;28;20048;-63
2021/07/12 01:29:09;;;;;;;1.55;1.55;;;27.40;53.20;;;;;;5007621;28;20132;-63
2021/07/12 01:32:01;;;;;;;1.80;1.70;;;27.40;53.20;;;;;;5008496;28;20048;-63
2021/07/12 01:34:51;;;;;;;1.63;1.52;;;27.40;53.20;;;;;;5006981;28;20133;-63
2021/07/12 01:37:50;;;;;;;1.85;1.75;;;27.40;53.20;;;;;;5007109;28;20400;-63
2021/07/12 01:40:31;;;;;;;1.58;1.50;;;27.40;53.30;;;;;;5008033;28;20570;-62
2021/07/12 01:43:30;;;;;;;1.60;1.50;;;27.30;53.20;;;;;;5008357;28;20133;-63
2021/07/12 01:46:03;;;;;;;1.85;1.75;;;27.30;53.20;;;;;;5008321;28;20054;-62
2021/07/12 01:48:44;;;;;;;1.75;1.65;;;27.30;53.20;;;;;;5008094;28;20191;-63
2021/07/12 01:51:13;;;;;;;1.75;1.65;;;27.30;53.20;;;;;;5007603;28;20056;-63
2021/07/12 01:53:57;;;;;;;1.75;1.65;;;27.30;53.30;;;;;;5007726;28;20050;-63
2021/07/12 01:57:05;;;;;;;1.90;1.80;;;27.30;53.30;;;;;;5008350;28;20399;-62
2021/07/12 02:00:05;;;;;;;1.55;1.45;;;27.30;53.30;;;;;;5007610;28;20096;-63
2021/07/12 02:02:33;;;;;;;;;;;27.30;53.30;;;;;;5007938;28;20042;-62
2021/07/12 02:05:07;;;;;;;1.90;1.80;;;27.30;53.30;;;;;;5008030;28;20363;-63
2021/07/12 02:07:37;;;;;;;1.70;1.60;;;27.30;53.30;;;;;;5007655;28;20151;-63
2021/07/12 02:10:06;;;;;;;1.70;1.60;;;27.30;53.40;;;;;;5039452;28;20125;-62
2021/07/12 02:12:35;;;;;;;1.80;1.70;;;27.30;53.40;;;;;;5007459;28;20046;-63
2021/07/12 02:15:05;;;;;;;2.00;1.45;;;27.30;53.40;;;;;;5006358;28;20566;-63
2021/07/12 02:17:33;;;;;;;1.52;1.52;;;27.30;53.40;;;;;;5010301;28;20050;-63
2021/07/12 02:20:03;;;;;;;1.48;1.38;;;27.30;53.30;;;;;;5011661;28;20707;-63
2021/07/12 02:22:34;;;;;;;1.60;1.50;;;27.30;53.30;;;;;;5009990;28;20071;-63
2021/07/12 02:25:02;;;;;;;1.50;1.27;;;27.30;53.30;;;;;;5011340;28;20452;-63
2021/07/12 02:27:32;;;;;;;1.40;1.40;;;27.30;53.30;;;;;;5011336;28;20161;-62
2021/07/12 02:30:01;;;;;;;1.67;1.58;;;27.30;53.30;;;;;;5011139;28;20647;-63
2021/07/12 02:32:29;;;;;;;1.58;1.50;;;27.30;53.30;;;;;;5011277;28;20093;-63
2021/07/12 02:34:57;;;;;;;1.13;1.13;;;27.30;53.20;;;;;;5011137;28;20125;-63
2021/07/12 02:37:26;;;;;;;1.63;1.53;;;27.30;53.20;;;;;;5011418;28;20049;-63
2021/07/12 02:39:55;;;;;;;1.67;1.58;;;27.30;53.20;;;;;;5009204;28;20371;-62
2021/07/12 02:42:23;;;;;;;1.88;1.50;;;27.40;53.30;;;;;;5010885;28;20042;-63
2021/07/12 02:44:52;;;;;;;1.48;1.38;;;27.30;53.20;;;;;;5011003;28;20054;-62
2021/07/12 02:47:19;;;;;;;1.65;1.55;;;27.30;53.20;;;;;;5010447;28;20779;-63
2021/07/12 02:49:47;;;;;;;1.50;1.40;;;27.30;53.20;;;;;;5011169;28;20054;-62
2021/07/12 02:52:22;;;;;;;1.25;1.25;;;27.30;53.20;;;;;;5010470;28;20056;-63
2021/07/12 02:54:55;;;;;;;1.73;1.63;;;27.30;53.20;;;;;;5010550;28;20129;-63
2021/07/12 02:57:22;;;;;;;1.30;1.30;;;27.30;53.20;;;;;;5010691;28;20089;-63
2021/07/12 02:59:50;;;;;;;1.35;1.25;;;27.30;53.30;;;;;;5011144;28;20132;-63
2021/07/12 03:02:17;;;;;;;1.45;1.35;;;27.30;53.20;;;;;;5041815;28;20483;-63
2021/07/12 03:04:45;;;;;;;1.67;1.58;;;27.30;53.20;;;;;;5010418;28;20081;-63
2021/07/12 03:07:20;;;;;;;1.75;1.65;;;27.30;53.30;;;;;;5042399;28;20112;-63
2021/07/12 03:09:51;;;;;;;1.33;1.33;;;27.30;53.30;;;;;;5010233;28;20085;-63
2021/07/12 03:12:50;;;;;;;1.25;1.25;;;27.30;53.30;;;;;;5010516;28;20053;-63
2021/07/12 03:15:24;;;;;;;1.30;1.30;;;27.30;53.80;;;;;;5010032;28;20158;-63
2021/07/12 03:17:53;;;;;;;1.65;1.55;;;27.30;53.30;;;;;;4992839;28;20048;-63
2021/07/12 03:20:22;;;;;;;1.27;1.27;;;27.30;53.30;;;;;;5010074;28;20522;-63
2021/07/12 03:22:52;;;;;;;1.63;1.52;;;27.30;53.30;;;;;;5010742;28;20108;-63
2021/07/12 03:25:28;;;;;;;1.38;1.33;;;27.30;53.30;;;;;;5010013;28;20469;-63
2021/07/12 03:27:57;;;;;;;1.30;1.30;;;27.30;53.30;;;;;;5009262;28;20137;-63
2021/07/12 03:30:27;;;;;;;1.40;1.33;;;27.30;53.30;;;;;;5009788;28;20149;-63
2021/07/12 03:32:56;;;;;;;1.35;1.35;;;27.30;53.30;;;;;;5010704;28;20073;-63
2021/07/12 03:35:34;;;;;;;1.40;1.40;;;27.30;53.30;;;;;;5009783;28;20053;-63
2021/07/12 03:38:02;;;;;;;1.42;1.40;;;27.30;53.30;;;;;;5010176;28;20530;-63
2021/07/12 03:40:30;;;;;;;1.30;1.30;;;27.30;53.30;;;;;;5009615;28;20046;-63
2021/07/12 03:42:57;;;;;;;1.60;1.50;;;27.30;53.30;;;;;;5008875;28;20100;-63
2021/07/12 03:45:24;;;;;;;1.20;1.20;;;27.30;53.30;;;;;;5009166;28;20559;-63
2021/07/12 03:47:52;;;;;;;2.47;1.60;;;27.30;53.20;;;;;;5010056;28;20045;-63
2021/07/12 03:50:19;;;;;;;1.48;1.42;;;27.30;53.20;;;;;;5009221;28;20128;-63
2021/07/12 03:52:49;;;;;;;1.58;1.52;;;27.30;53.10;;;;;;5009257;28;20108;-64
2021/07/12 03:55:18;;;;;;;;;;;27.30;53.10;;;;;;5009937;28;20052;-63
2021/07/12 03:57:45;;;;;;;1.58;1.50;;;27.40;53.10;;;;;;5009204;28;20353;-63
2021/07/12 04:00:15;;;;;;;1.02;1.02;;;27.30;53.00;;;;;;5009387;28;20761;-63
2021/07/12 04:02:44;;;;;;;1.38;1.38;;;27.40;53.60;;;;;;5009185;28;20129;-63
2021/07/12 04:05:12;;;;;;;1.52;1.42;;;27.40;53.00;;;;;;5008832;28;20422;-63
2021/07/12 04:07:40;;;;;;;1.63;1.55;;;27.40;53.00;;;;;;5008690;28;20129;-63
2021/07/12 04:10:10;;;;;;;1.40;1.40;;;27.40;52.90;;;;;;5008414;28;20172;-63
2021/07/12 04:12:39;;;;;;;1.13;1.02;;;27.40;52.90;;;;;;5009546;28;20091;-63
2021/07/12 04:15:08;;;;;;;1.17;1.17;;;27.40;53.40;;;;;;5008936;28;20113;-63
2021/07/12 04:17:35;;;;;;;1.20;1.20;;;27.50;52.90;;;;;;5009211;28;20140;-63
2021/07/12 04:20:05;;;;;;;1.27;1.27;;;27.50;52.80;;;;;;5007839;28;20081;-63
2021/07/12 04:22:32;;;;;;;1.30;1.30;;;27.50;52.80;;;;;;5008915;28;20133;-63
2021/07/12 04:25:00;;;;;;;1.35;1.27;;;27.50;52.70;;;;;;5008055;28;20563;-63
2021/07/12 04:27:27;;;;;;;3.58;1.15;;;27.50;52.70;;;;;;5011154;28;20050;-63
2021/07/12 04:29:54;;;;;;;1.65;1.55;;;27.50;52.60;;;;;;5008272;28;20105;-64
2021/07/12 04:32:21;;;;;;;1.48;1.42;;;27.50;52.60;;;;;;5010465;28;20056;-63
2021/07/12 04:34:48;;;;;;;1.25;1.15;;;27.50;52.50;;;;;;5007876;28;20130;-63
2021/07/12 04:37:16;;;;;;;1.33;1.20;;;27.50;52.50;;;;;;5039723;28;20049;-63
2021/07/12 04:39:43;;;;;;;1.10;1.10;;;27.60;52.60;;;;;;5007792;28;20831;-63
2021/07/12 04:42:10;;;;;;;1.17;1.17;;;27.60;52.60;;;;;;5006231;28;20133;-63
2021/07/12 04:44:37;;;;;;;1.23;1.13;;;27.60;52.50;;;;;;5008339;28;20141;-63
2021/07/12 04:47:05;;;;;;;1.48;1.38;;;27.60;52.50;;;;;;5008188;28;20144;-63
2021/07/12 04:49:33;;;;;;;1.30;1.30;;;27.60;52.40;;;;;;5007356;28;20562;-63
2021/07/12 04:52:01;;;;;;;1.20;1.20;;;27.60;52.40;;;;;;5007836;28;20052;-63
2021/07/12 04:54:28;;;;;;;1.30;1.20;;;27.60;52.40;;;;;;5007551;28;20077;-63
2021/07/12 04:56:57;;;;;;;1.15;1.15;;;27.60;52.40;;;;;;5006409;28;20630;-63
2021/07/12 04:59:27;;;;;;;1.10;1.10;;;27.60;52.30;;;;;;5011007;28;20631;-63
2021/07/12 05:01:55;;;;;;;1.10;1.10;;;27.60;52.30;;;;;;5009978;28;20573;-63
2021/07/12 05:04:22;;;;;;;1.30;1.30;;;27.60;52.30;;;;;;5017771;28;20771;-63
2021/07/12 05:06:49;;;;;;;0.98;0.98;;;27.60;52.10;;;;;;5027013;28;20065;-63
2021/07/12 05:09:17;;;;;;;1.08;1.08;;;27.60;52.30;;;;;;5020667;28;20038;-64
2021/07/12 05:11:44;;;;;;;1.50;1.40;;;27.60;52.40;;;;;;5007588;28;20703;-64
2021/07/12 05:14:11;;;;;;;1.30;1.30;;;27.50;52.60;;;;;;5011803;28;20590;-65
2021/07/12 05:16:40;;;;;;;1.13;1.13;;;27.40;52.80;;;;;;5016617;28;20141;-65
2021/07/12 05:19:07;;;;;;;1.20;1.20;;;27.20;53.00;;;;;;5025873;28;20054;-65
2021/07/12 05:21:34;;;;;;;1.58;1.48;;;27.10;53.20;;;;;;5006703;28;20146;-66
2021/07/12 05:24:04;;;;;;;1.85;1.50;;;27.00;53.50;;;;;;5007504;28;20042;-63
2021/07/12 05:26:31;;;;;;;3.55;2.03;;;26.70;53.70;;;;;;5003502;28;20061;-64
2021/07/12 05:28:58;;;;;;;2.35;2.20;;;26.40;54.00;;;;;;5007029;28;20136;-63
2021/07/12 05:31:25;;;;;;;2.80;2.30;;;26.20;54.40;;;;;;5034356;28;20129;-65
2021/07/12 05:33:53;;;;;;;2.20;2.00;;;25.90;54.30;;;;;;5018651;28;20041;-63
2021/07/12 05:36:21;;;;;;;2.55;2.35;;;25.70;54.50;;;;;;5008714;28;20479;-64
2021/07/12 05:38:48;;;;;;;4.70;2.50;;;25.50;54.50;;;;;;5003972;28;20468;-63
2021/07/12 05:41:15;;;;;;;2.33;2.13;;;25.30;54.70;;;;;;5002168;28;20133;-62
2021/07/12 05:43:42;;;;;;;2.65;2.45;;;25.20;55.20;;;;;;5004175;28;20046;-63
2021/07/12 05:46:09;;;;;;;3.95;2.42;;;25.00;55.80;;;;;;4992298;28;20050;-64
2021/07/12 05:48:55;;;;;;;2.17;2.03;;;24.90;56.40;;;;;;4992429;28;20068;-64
2021/07/12 05:51:22;;;;;;;2.35;2.10;;;24.70;56.60;;;;;;5007488;28;20046;-66
2021/07/12 05:53:50;;;;;;;2.95;2.75;;;24.60;56.60;;;;;;5009575;28;20042;-66
2021/07/12 05:56:17;;;;;;;3.80;2.78;;;24.60;56.80;;;;;;5009782;28;20454;-65
2021/07/12 05:58:44;;;;;;;3.15;2.85;;;24.50;57.20;;;;;;5007730;28;20155;-65
2021/07/12 06:01:16;;;;;;;2.65;2.45;;;24.40;57.40;;;;;;5006800;28;20112;-65
2021/07/12 06:03:43;;;;;;;3.88;2.10;;;24.30;57.60;;;;;;5009168;28;20555;-66
2021/07/12 06:06:12;;;;;;;2.47;2.35;;;24.20;57.90;;;;;;5007564;28;20046;-65
2021/07/12 06:08:39;;;;;;;2.50;2.17;;;24.10;58.00;;;;;;5008590;28;20468;-66
2021/07/12 06:11:09;;;;;;;3.03;2.70;;;24.10;58.30;;;;;;5014221;28;20162;-66
2021/07/12 06:13:37;;;;;;;3.30;2.70;;;24.00;58.40;;;;;;5007260;28;20472;-66
2021/07/12 06:16:04;;;;;;;4.60;2.92;;;23.90;58.90;;;;;;5009381;28;20060;-64
2021/07/12 06:18:31;;;;;;;3.97;2.60;;;23.90;59.50;;;;;;5006428;28;20048;-64
2021/07/12 06:20:59;;;;;;;2.95;2.55;;;23.80;60.00;;;;;;5012642;28;20073;-63
2021/07/12 06:23:26;;;;;;;3.70;2.40;;;23.80;60.20;;;;;;5010555;28;20093;-62
2021/07/12 06:25:54;;;;;;;3.05;2.85;;;23.80;60.50;;;;;;5006792;28;20552;-64
2021/07/12 06:28:21;;;;;;;2.70;2.45;;;23.70;60.40;;;;;;5008823;28;20771;-63
2021/07/12 06:30:48;;;;;;;2.75;2.55;;;23.80;60.60;;;;;;5012024;28;20049;-63
2021/07/12 06:33:15;;;;;;;3.33;2.35;;;23.80;60.60;;;;;;5011120;28;20140;-62
2021/07/12 06:35:43;;;;;;;4.65;2.45;;;23.80;61.10;;;;;;5010561;28;20046;-62
2021/07/12 06:38:10;;;;;;;4.78;2.97;;;23.80;60.60;;;;;;5006340;28;20054;-63
2021/07/12 06:40:37;;;;;;;3.58;2.30;;;23.90;60.60;;;;;;5027784;28;20045;-62
2021/07/12 06:43:04;;;;;;;2.80;2.55;;;23.90;60.50;;;;;;5009806;28;20046;-63
2021/07/12 06:45:31;;;;;;;2.80;2.60;;;24.00;60.50;;;;;;5010213;28;20070;-61
2021/07/12 06:48:00;;;;;;;3.22;2.58;;;24.00;60.30;;;;;;5010633;28;20109;-67
2021/07/12 06:50:27;;;;;;;3.33;2.22;;;24.10;60.30;;;;;;5008472;28;20077;-66
2021/07/12 06:52:54;;;;;;;3.00;2.60;;;24.10;60.20;;;;;;5009985;28;20479;-65
2021/07/12 06:55:21;;;;;;;2.60;2.40;;;24.10;60.10;;;;;;5013233;28;20046;-65
2021/07/12 06:57:51;;;;;;;3.08;2.25;;;24.20;60.00;;;;;;5013834;28;20034;-63
2021/07/12 07:00:42;;;;;;;2.45;2.17;;;24.30;60.00;;;;;;5011623;28;20069;-64
2021/07/12 07:03:10;;;;;;;11.77;2.97;;;24.30;60.00;;;;;;5008100;28;20034;-64
2021/07/12 07:06:12;;;;;;;4.00;2.40;;;24.30;59.90;;;;;;5010261;28;20061;-67
2021/07/12 07:12:21;;;;;;;2.38;2.28;;;24.40;59.90;;;;;;5954324;23;20044;-66
2021/07/12 07:18:45;;;;;;;4.38;2.85;;;24.50;60.10;;;;;;5086055;28;20051;-67
2021/07/12 07:21:12;;;;;;;2.70;2.50;;;24.60;59.60;;;;;;5099062;28;20103;-67
2021/07/12 07:23:39;;;;;;;2.75;2.55;;;24.60;59.40;;;;;;5098741;28;20222;-67
2021/07/12 07:26:07;;;;;;;4.35;2.85;;;24.70;59.40;;;;;;5098827;28;20048;-66
2021/07/12 07:28:34;;;;;;;3.03;2.72;;;24.70;59.20;;;;;;5090772;28;20892;-67
2021/07/12 07:31:01;;;;;;;2.75;2.55;;;24.80;59.10;;;;;;5081720;28;20078;-67
2021/07/12 07:33:29;;;;;;;3.97;2.50;;;24.80;59.20;;;;;;5082348;28;20567;-66
2021/07/12 07:35:57;;;;;;;3.53;3.22;;;24.90;59.20;;;;;;5075172;28;20076;-67
2021/07/12 07:38:25;;;;;;;2.90;2.65;;;24.90;59.00;;;;;;5065324;28;20086;-68
2021/07/12 07:40:53;;;;;;;2.90;2.70;;;24.90;58.90;;;;;;5078626;28;20123;-65
2021/07/12 07:43:20;;;;;;;2.53;2.33;;;24.90;58.80;;;;;;5081472;28;20040;-66
2021/07/12 07:45:47;;;;;;;2.80;2.60;;;25.00;58.70;;;;;;5078495;28;20135;-69
2021/07/12 07:48:16;;;;;;;2.50;2.30;;;25.00;58.60;;;;;;5075486;28;20676;-66
2021/07/12 07:50:44;;;;;;;2.75;2.55;;;25.00;58.50;;;;;;5076920;28;20040;-67
2021/07/12 07:53:11;;;;;;;3.00;2.63;;;25.00;58.60;;;;;;5063060;28;20059;-67
2021/07/12 07:55:40;;;;;;;3.65;2.80;;;25.00;58.50;;;;;;5076464;28;20158;-65
2021/07/12 07:58:07;;;;;;;3.88;2.40;;;25.00;58.50;;;;;;5058904;28;20120;-65
2021/07/12 08:00:36;;;;;;;2.63;2.30;;;25.00;58.50;;;;;;5061918;28;20103;-69
2021/07/12 08:03:04;;;;;;;3.03;2.83;;;25.10;59.90;;;;;;5078864;28;20123;-68
2021/07/12 08:05:33;;;;;;;2.55;2.30;;;25.00;59.50;;;;;;5078597;28;20109;-69
2021/07/12 08:08:00;;;;;;;3.53;2.45;;;24.90;59.30;;;;;;5080604;28;20044;-71
2021/07/12 08:10:27;;;;;;;2.75;2.55;;;24.80;59.90;;;;;;5080451;28;20458;-71
2021/07/12 08:12:54;;;;;;;2.85;2.58;;;24.70;59.40;;;;;;5080806;28;20058;-78
2021/07/12 08:15:22;;;;;;;5.20;3.08;;;24.70;59.60;;;;;;5073916;28;20052;-69
2021/07/12 08:17:50;;;;;;;3.33;3.05;;;24.60;60.50;;;;;;5076806;28;20100;-66
2021/07/12 08:20:18;;;;;;;2.80;2.60;;;24.50;60.50;;;;;;5064231;28;20050;-67
2021/07/12 08:22:52;;;;;;;3.65;2.53;;;24.50;60.80;;;;;;5080157;28;20127;-68
2021/07/12 08:25:20;;;;;;;3.65;3.10;;;24.50;60.90;;;;;;5079481;28;20098;-66
2021/07/12 08:27:48;;;;;;;3.08;2.88;;;24.50;61.00;;;;;;5073683;28;20055;-64
2021/07/12 08:30:16;;;;;;;3.50;3.20;;;24.50;61.20;;;;;;5060529;28;20036;-64
2021/07/12 08:32:44;;;;;;;3.47;2.67;;;24.40;61.80;;;;;;5062882;28;20121;-67
2021/07/12 08:35:13;;;;;;;3.20;2.90;;;24.40;61.30;;;;;;5077807;28;20058;-65
2021/07/12 08:37:40;;;;;;;3.72;3.38;;;24.40;61.10;;;;;;5076365;28;20559;-65
2021/07/12 08:40:10;;;;;;;2.88;2.67;;;24.50;61.10;;;;;;5081140;28;20048;-64
2021/07/12 08:42:37;;;;;;;3.72;3.13;;;24.40;61.20;;;;;;5083763;28;20070;-67
2021/07/12 08:45:06;;;;;;;3.38;3.08;;;24.50;61.40;;;;;;5061549;28;20113;-65
2021/07/12 08:47:33;;;;;;;3.53;2.92;;;24.40;61.60;;;;;;5074704;28;20129;-65
2021/07/12 08:50:00;;;;;;;3.47;3.05;;;24.40;61.40;;;;;;5081877;28;20734;-66
2021/07/12 08:52:27;;;;;;;2.92;2.72;;;24.40;61.50;;;;;;5082904;28;20505;-66
2021/07/12 08:54:55;;;;;;;2.60;2.40;;;24.40;61.50;;;;;;5080802;28;20711;-66
2021/07/12 08:57:22;;;;;;;3.60;3.25;;;24.40;61.60;;;;;;5084308;28;20063;-64
2021/07/12 08:59:55;;;;;;;3.42;3.13;;;24.40;62.20;;;;;;5081228;28;21642;-65
2021/07/12 09:02:23;;;;;;;3.28;2.97;;;24.40;62.40;;;;;;5080890;28;20103;-67
2021/07/12 09:04:54;;;;;;;3.45;3.10;;;24.40;62.60;;;;;;5068846;28;20048;-67
2021/07/12 09:07:25;;;;;;;3.58;3.05;;;24.40;62.60;;;;;;5079539;28;20131;-67
2021/07/12 09:10:12;;;;;;;3.78;3.10;;;24.40;62.60;;;;;;5078367;28;20120;-67
2021/07/12 09:12:43;;;;;;;4.13;3.17;;;24.40;62.80;;;;;;5079240;28;20130;-67
2021/07/12 09:15:14;;;;;;;3.60;3.30;;;24.40;62.60;;;;;;5079587;28;20129;-64
2021/07/12 09:17:58;;;;;;;3.35;3.05;;;24.50;62.70;;;;;;5062170;28;20577;-64
2021/07/12 09:20:31;;;;;;;3.30;3.10;;;24.40;62.60;;;;;;5076644;28;21730;-64
2021/07/12 09:23:18;;;;;;;3.75;3.45;;;24.50;62.80;;;;;;5078875;28;20093;-64
2021/07/12 09:25:59;;;;;;;8.15;3.28;;;24.50;62.80;;;;;;5057616;28;20054;-62
2021/07/12 09:28:40;;;;;;;3.67;3.13;;;24.50;62.70;;;;;;5078585;28;20133;-68
2021/07/12 09:31:26;;;;;;;3.40;3.10;;;24.50;62.80;;;;;;5076817;28;20075;-66
2021/07/12 09:33:53;;;;;;;5.10;2.65;;;24.50;62.90;;;;;;5077477;28;20074;-66
2021/07/12 09:36:32;;;;;;;2.97;2.78;;;24.50;62.90;;;;;;5075165;28;20051;-64
2021/07/12 09:39:33;;;;;;;3.38;3.08;;;24.50;62.70;;;;;;5078891;28;20062;-65
2021/07/12 09:42:08;;;;;;;3.10;2.80;;;24.50;62.50;;;;;;5075915;28;20052;-66
2021/07/12 09:44:41;;;;;;;4.82;3.05;;;24.50;62.50;;;;;;5082646;28;20071;-68
2021/07/12 09:47:16;;;;;;;2.97;2.78;;;24.60;62.60;;;;;;5083941;28;20048;-66
2021/07/12 09:49:47;;;;;;;4.25;3.25;;;24.50;62.60;;;;;;5074181;28;20046;-66
2021/07/12 09:52:18;;;;;;;3.15;2.85;;;24.60;62.80;;;;;;5078855;28;20159;-67
2021/07/12 09:54:47;;;;;;;3.55;3.25;;;24.50;62.80;;;;;;5061043;28;20505;-66
2021/07/12 09:57:23;;;;;;;3.07;2.83;;;24.60;62.80;;;;;;5077179;28;20134;-68
2021/07/12 10:00:04;;;;;;;6.47;2.80;;;24.60;62.70;;;;;;5077792;28;20119;-66
2021/07/12 10:02:35;;;;;;;3.22;2.90;;;24.60;62.70;;;;;;5074616;28;20067;-69
2021/07/12 10:05:07;;;;;;;3.25;2.80;;;24.60;62.80;;;;;;5062991;28;20108;-66
2021/07/12 10:07:35;;;;;;;3.13;2.90;;;24.60;63.10;;;;;;5080365;28;20112;-66
2021/07/12 10:10:08;;;;;;;3.85;3.20;;;24.60;63.10;;;;;;5079248;28;20079;-67
2021/07/12 10:12:36;;;;;;;3.25;2.95;;;24.60;63.20;;;;;;5066303;28;20052;-66
2021/07/12 10:15:03;;;;;;;3.33;3.13;;;24.60;63.20;;;;;;5079102;28;20080;-66
2021/07/12 10:17:31;;;;;;;5.90;3.25;;;24.60;63.10;;;;;;5077019;28;20036;-66
2021/07/12 10:19:58;;;;;;;3.65;3.35;;;24.60;63.20;;;;;;5079393;28;20123;-67
2021/07/12 10:22:35;;;;;;;3.08;2.88;;;24.60;63.60;;;;;;5082814;28;20080;-63
2021/07/12 10:25:13;;;;;;;3.78;3.17;;;24.60;63.70;;;;;;5077832;28;20316;-62
2021/07/12 10:27:53;;;;;;;2.97;2.60;;;24.60;64.10;;;;;;5074725;28;20420;-67
2021/07/12 10:30:30;;;;;;;3.10;2.80;;;24.60;63.90;;;;;;5060653;28;20102;-66
2021/07/12 10:33:04;;;;;;;3.30;3.03;;;24.60;63.90;;;;;;5076160;28;20115;-68
2021/07/12 10:35:49;;;;;;;2.83;2.63;;;24.60;63.90;;;;;;5077229;28;20140;-67
2021/07/12 10:38:24;;;;;;;3.20;2.90;;;24.60;63.80;;;;;;5080108;28;20119;-68
2021/07/12 10:40:55;;;;;;;3.55;3.22;;;24.70;63.80;;;;;;5080630;28;20535;-66
2021/07/12 10:43:46;;;;;;;3.75;3.30;;;24.70;64.40;;;;;;5078824;28;20605;-69
2021/07/12 10:46:37;;;;;;;3.47;3.17;;;24.70;63.90;;;;;;5082040;28;20086;-68
2021/07/12 10:49:26;;;;;;;4.43;3.20;;;24.70;63.90;;;;;;5066795;28;20056;-72
2021/07/12 10:51:53;;;;;;;3.30;3.00;;;24.70;63.90;;;;;;5075625;28;20044;-73
2021/07/12 10:54:22;;;;;;;3.83;3.42;;;24.70;63.60;;;;;;5080709;28;20048;-69
2021/07/12 10:56:57;;;;;;;3.28;3.08;;;24.70;63.20;;;;;;5064385;28;20404;-69
2021/07/12 10:59:35;;;;;;;3.83;3.53;;;24.70;63.20;;;;;;5078972;28;20044;-67
2021/07/12 11:02:30;;;;;;;3.38;3.17;;;24.80;63.30;;;;;;5082207;28;20149;-67
2021/07/12 11:05:06;;;;;;;3.65;3.20;;;24.70;63.20;;;;;;5077574;28;20405;-68
2021/07/12 11:07:42;;;;;;;3.30;3.00;;;24.70;63.50;;;;;;5076494;28;20048;-72
2021/07/12 11:10:25;;;;;;;4.15;3.75;;;24.80;63.20;;;;;;5089766;28;20668;-71
2021/07/12 11:18:04;;;;;;;4.00;3.70;;;24.70;62.90;;;;;;5075356;28;20178;-70
2021/07/12 11:20:51;;;;;;;3.50;3.17;;;24.70;63.00;;;;;;5070139;28;20040;-70
2021/07/12 11:23:42;;;;;;;3.50;3.20;;;24.70;62.90;;;;;;5047343;28;20135;-70
2021/07/12 11:26:34;;;;;;;3.80;3.50;;;24.70;63.10;;;;;;5076964;28;20060;-70
2021/07/12 11:29:31;;;;;;;3.35;3.05;;;24.70;63.60;;;;;;5061153;28;20517;-72
2021/07/12 11:32:09;;;;;;;4.88;3.75;;;24.70;63.00;;;;;;5079652;28;20040;-71
2021/07/12 11:34:44;;;;;;;3.65;3.35;;;24.70;63.10;;;;;;5076782;28;20096;-73
2021/07/12 11:37:17;;;;;;;3.38;3.17;;;24.70;63.00;;;;;;5071740;28;20545;-73
2021/07/12 11:39:59;;;;;;;3.50;3.20;;;24.70;63.20;;;;;;5061305;28;20072;-73
2021/07/12 11:42:31;;;;;;;4.93;3.22;;;24.70;63.20;;;;;;5077061;28;20052;-71
2021/07/12 11:45:17;;;;;;;3.70;3.40;;;24.70;62.70;;;;;;5073683;28;20043;-73
2021/07/12 11:47:55;;;;;;;4.97;4.25;;;24.70;62.80;;;;;;5077462;28;20160;-74
2021/07/12 11:50:31;;;;;;;5.07;3.90;;;24.70;62.80;;;;;;5080490;28;20864;-73
2021/07/12 11:53:04;;;;;;;3.92;3.60;;;24.70;62.80;;;;;;5063863;28;20041;-74
2021/07/12 11:55:37;;;;;;;3.88;3.58;;;24.70;62.80;;;;;;5074995;28;20121;-70
2021/07/12 11:58:05;;;;;;;7.95;3.65;;;24.70;62.60;;;;;;5079997;28;20076;-69
2021/07/12 12:00:38;;;;;;;5.25;3.85;;;24.70;62.60;;;;;;5078920;28;20056;-72
2021/07/12 12:03:11;;;;;;;4.43;4.03;;;24.70;62.90;;;;;;5080985;28;20488;-69
2021/07/12 12:05:45;;;;;;;3.80;3.50;;;24.70;63.10;;;;;;5080539;28;20117;-70
2021/07/12 12:08:17;;;;;;;7.20;3.42;;;24.70;63.90;;;;;;5078155;28;20070;-67
2021/07/12 12:10:47;;;;;;;4.57;4.18;;;24.70;63.50;;;;;;5075654;28;20054;-73
2021/07/12 12:13:17;;;;;;;3.75;3.45;;;24.70;63.70;;;;;;5078975;28;20084;-70
2021/07/12 12:15:49;;;;;;;5.15;4.30;;;24.70;64.10;;;;;;5080268;28;20044;-67
2021/07/12 12:18:20;;;;;;;5.05;4.20;;;24.70;64.60;;;;;;5076426;28;20043;-68
2021/07/12 12:20:50;;;;;;;5.25;3.63;;;24.70;64.40;;;;;;5080170;28;20064;-69
2021/07/12 12:23:22;;;;;;;;;;;24.70;64.30;;;;;;5081700;28;20083;-74
2021/07/12 12:26:03;;;;;;;4.43;4.03;;;24.80;64.50;;;;;;5076532;28;19964;-69
2021/07/12 12:28:34;;;;;;;3.95;3.65;;;24.80;64.30;;;;;;5079849;28;20759;-70
2021/07/12 12:31:12;;;;;;;4.10;3.70;;;24.80;64.20;;;;;;5076892;28;20051;-70
2021/07/12 12:33:43;;;;;;;5.28;4.07;;;24.80;64.10;;;;;;5077212;28;20044;-70
2021/07/12 12:36:18;;;;;;;3.70;3.40;;;24.80;64.10;;;;;;5078687;28;20048;-71
2021/07/12 12:39:00;;;;;;;6.32;3.95;;;24.80;64.00;;;;;;5078738;28;20109;-69
2021/07/12 12:41:30;;;;;;;5.22;4.35;;;24.90;64.30;;;;;;5080843;28;20870;-71
2021/07/12 12:44:10;;;;;;;4.38;3.95;;;24.90;64.00;;;;;;5083691;28;20040;-68
2021/07/12 12:46:58;;;;;;;5.00;4.57;;;24.90;63.90;;;;;;5075505;28;20086;-69
2021/07/12 12:49:32;;;;;;;3.80;3.17;;;24.90;63.70;;;;;;5075515;28;20556;-68
2021/07/12 12:52:15;;;;;;;4.35;3.88;;;24.90;63.60;;;;;;5073020;28;20067;-68
2021/07/12 12:54:49;;;;;;;4.15;3.78;;;24.90;63.40;;;;;;5059873;28;20048;-67
2021/07/12 12:57:27;;;;;;;5.90;4.88;;;24.90;63.00;;;;;;5076542;28;20044;-68
2021/07/12 13:00:09;;;;;;;5.03;4.30;;;24.90;63.60;;;;;;5076523;28;20585;-69
2021/07/12 13:02:41;;;;;;;4.50;4.05;;;24.90;63.00;;;;;;5074274;28;20143;-68
2021/07/12 13:05:20;;;;;;;5.53;4.03;;;24.90;63.00;;;;;;5076413;28;20048;-66
2021/07/12 13:07:50;;;;;;;5.30;4.28;;;24.90;62.80;;;;;;5075000;28;20130;-70
2021/07/12 13:10:26;;;;;;;5.75;4.50;;;24.90;62.80;;;;;;5077015;28;20191;-73
2021/07/12 13:12:56;;;;;;;4.00;3.60;;;24.90;62.80;;;;;;5061027;28;20119;-70
2021/07/12 13:15:30;;;;;;;5.82;3.70;;;24.90;62.60;;;;;;5080218;28;20143;-69
2021/07/12 13:18:03;;;;;;;4.07;3.78;;;24.90;62.60;;;;;;5080206;28;20047;-70
2021/07/12 13:20:30;;;;;;;3.92;3.55;;;24.90;62.90;;;;;;5079934;28;20613;-71
2021/07/12 13:23:06;;;;;;;3.30;3.03;;;24.90;62.90;;;;;;5058093;28;20056;-71
2021/07/12 13:25:37;;;;;;;4.68;3.50;;;24.90;62.80;;;;;;5063052;28;20409;-70
2021/07/12 13:28:16;;;;;;;;;;;24.90;62.80;;;;;;5082560;28;20139;-72